Time;durP1;ratioP1;P1;durP2;ratioP2;P2;SDS_P1;SDS_P2;PMS_P1;PMS_P2;Temp;Humidity;BMP_temperature;BMP_pressure;BME280_temperature;BME280_humidity;BME280_pressure;Samples;Min_cycle;Max_cycle;Signal;HPM_P1;HPM_P2
2021/07/16 00:00:40;;;;;;;8.02;6.50;;;17.50;99.90;;;;;;5021566;28;20057;-85
2021/07/16 00:03:07;;;;;;;8.93;6.95;;;17.50;99.90;;;;;;5026592;28;20505;-85
2021/07/16 00:05:34;;;;;;;9.40;6.90;;;17.50;99.90;;;;;;5018156;28;20605;-85
2021/07/16 00:08:01;;;;;;;9.10;7.53;;;17.50;99.90;;;;;;5015335;28;20122;-85
2021/07/16 00:10:28;;;;;;;9.90;6.93;;;17.50;99.90;;;;;;5020375;28;20052;-85
2021/07/16 00:12:55;;;;;;;9.00;8.05;;;17.50;99.90;;;;;;5013088;28;20042;-85
2021/07/16 00:15:23;;;;;;;12.80;8.60;;;17.50;99.90;;;;;;5030499;28;20120;-85
2021/07/16 00:17:50;;;;;;;10.18;8.10;;;17.40;99.90;;;;;;5019032;28;20046;-85
2021/07/16 00:20:18;;;;;;;9.18;8.27;;;17.50;99.90;;;;;;5017586;28;20378;-85
2021/07/16 00:22:45;;;;;;;10.10;7.47;;;17.40;99.90;;;;;;5017514;28;20044;-85
2021/07/16 00:25:12;;;;;;;8.85;7.82;;;17.40;99.90;;;;;;5034543;28;20391;-85
2021/07/16 00:27:40;;;;;;;9.02;7.82;;;17.40;99.90;;;;;;5022666;28;20056;-85
2021/07/16 00:30:09;;;;;;;8.05;7.07;;;17.40;99.90;;;;;;5012098;28;20483;-85
2021/07/16 00:32:36;;;;;;;10.63;7.20;;;17.40;99.90;;;;;;5014819;28;20056;-85
2021/07/16 00:35:04;;;;;;;9.35;7.22;;;17.40;99.90;;;;;;5012175;28;20049;-85
2021/07/16 00:37:32;;;;;;;8.98;7.50;;;17.40;99.90;;;;;;5015687;28;20033;-85
2021/07/16 00:39:58;;;;;;;10.10;7.55;;;17.40;99.90;;;;;;4997947;28;20075;-85
2021/07/16 00:42:25;;;;;;;8.52;7.13;;;17.40;99.90;;;;;;5015519;28;20120;-85
2021/07/16 00:44:52;;;;;;;8.88;7.60;;;17.40;99.90;;;;;;5037800;28;20053;-85
2021/07/16 00:47:19;;;;;;;8.25;7.18;;;17.40;99.90;;;;;;5024260;28;20045;-85
2021/07/16 00:49:46;;;;;;;9.60;7.10;;;17.40;99.90;;;;;;5015007;28;20515;-85
2021/07/16 00:52:13;;;;;;;9.25;6.68;;;17.40;99.90;;;;;;5016906;28;20098;-85
2021/07/16 00:54:41;;;;;;;8.95;7.38;;;17.40;99.90;;;;;;5012984;28;20060;-85
2021/07/16 00:57:08;;;;;;;8.25;7.43;;;17.40;99.90;;;;;;5024054;28;20391;-85
2021/07/16 00:59:36;;;;;;;9.85;8.35;;;17.40;99.90;;;;;;5043630;28;20040;-85
2021/07/16 01:02:03;;;;;;;10.02;8.60;;;17.30;99.90;;;;;;5017511;28;20042;-85
2021/07/16 01:04:33;;;;;;;12.43;8.80;;;17.30;99.90;;;;;;5008198;28;20128;-84
2021/07/16 01:07:02;;;;;;;12.88;10.43;;;17.30;99.90;;;;;;5029276;28;20052;-85
2021/07/16 01:09:29;;;;;;;11.02;9.07;;;17.30;99.90;;;;;;5031726;28;20053;-85
2021/07/16 01:11:56;;;;;;;11.68;10.48;;;17.30;99.90;;;;;;5020039;28;20068;-85
2021/07/16 01:14:23;;;;;;;11.10;9.87;;;17.20;99.90;;;;;;5017467;28;21510;-85
2021/07/16 01:16:50;;;;;;;11.77;10.38;;;17.20;99.90;;;;;;5034970;28;20384;-84
2021/07/16 01:19:30;;;;;;;12.55;11.10;;;17.20;99.90;;;;;;5015395;28;20045;-85
2021/07/16 01:22:00;;;;;;;11.70;10.50;;;17.20;99.90;;;;;;5043101;28;20449;-84
2021/07/16 01:24:28;;;;;;;12.80;11.50;;;17.20;99.90;;;;;;5014215;28;20461;-85
2021/07/16 01:26:55;;;;;;;14.88;11.52;;;17.20;99.90;;;;;;5015021;28;20046;-84
2021/07/16 01:29:22;;;;;;;14.13;11.38;;;17.10;99.90;;;;;;5013950;28;20037;-85
2021/07/16 01:31:49;;;;;;;14.45;11.20;;;17.10;99.90;;;;;;5018145;28;20060;-84
2021/07/16 01:34:19;;;;;;;12.70;11.18;;;17.10;99.90;;;;;;5036859;28;20101;-85
2021/07/16 01:36:46;;;;;;;14.23;10.98;;;17.10;99.90;;;;;;4994648;28;20056;-85
2021/07/16 01:39:13;;;;;;;12.55;11.20;;;17.10;99.90;;;;;;4994558;28;20044;-85
2021/07/16 01:41:40;;;;;;;15.70;12.23;;;17.10;99.90;;;;;;4996351;28;20180;-85
2021/07/16 01:44:07;;;;;;;12.77;11.30;;;17.10;99.90;;;;;;4998046;28;20057;-85
2021/07/16 01:46:34;;;;;;;13.90;11.90;;;17.00;99.90;;;;;;4993250;28;20061;-84
2021/07/16 01:49:02;;;;;;;16.42;12.75;;;17.00;99.90;;;;;;4995488;28;20050;-85
2021/07/16 01:51:29;;;;;;;14.10;12.00;;;17.00;99.90;;;;;;5010785;28;20406;-85
2021/07/16 01:53:57;;;;;;;15.88;13.05;;;17.00;99.90;;;;;;4993209;28;20388;-84
2021/07/16 01:56:25;;;;;;;14.63;13.10;;;17.00;99.90;;;;;;4993078;28;20112;-85
2021/07/16 01:58:52;;;;;;;16.02;12.27;;;16.90;99.90;;;;;;4991215;28;20054;-84
2021/07/16 02:01:24;;;;;;;14.98;12.38;;;17.00;99.90;;;;;;5006657;28;20046;-85
2021/07/16 02:03:52;;;;;;;12.77;10.27;;;16.90;99.90;;;;;;5006701;28;20049;-84
2021/07/16 02:06:19;;;;;;;11.75;10.30;;;16.90;99.90;;;;;;5009561;28;20042;-85
2021/07/16 02:08:46;;;;;;;11.55;10.38;;;16.90;99.90;;;;;;4990616;28;20046;-84
2021/07/16 02:11:15;;;;;;;15.52;11.40;;;16.90;99.90;;;;;;4996452;28;20057;-85
2021/07/16 02:13:42;;;;;;;;;;;16.90;99.90;;;;;;4992810;28;20046;-85
2021/07/16 02:16:09;;;;;;;11.40;9.70;;;16.80;99.90;;;;;;5007986;28;19932;-84
2021/07/16 02:18:36;;;;;;;14.15;9.77;;;16.80;99.90;;;;;;5009976;28;20046;-84
2021/07/16 02:21:03;;;;;;;15.07;10.57;;;16.80;99.90;;;;;;5010109;28;20046;-85
2021/07/16 02:23:31;;;;;;;12.63;10.05;;;16.80;99.90;;;;;;4992498;28;20034;-85
2021/07/16 02:25:58;;;;;;;13.77;10.63;;;16.80;99.90;;;;;;4993503;28;20054;-85
2021/07/16 02:28:28;;;;;;;12.50;11.20;;;16.70;99.90;;;;;;4993237;28;20046;-85
2021/07/16 02:30:56;;;;;;;12.85;11.52;;;16.80;99.90;;;;;;4992688;28;20066;-85
2021/07/16 02:33:24;;;;;;;16.67;12.50;;;16.70;99.90;;;;;;4986810;28;20046;-84
2021/07/16 02:35:52;;;;;;;12.48;11.15;;;16.70;99.90;;;;;;5012777;28;20050;-84
2021/07/16 02:38:21;;;;;;;14.27;10.73;;;16.70;99.90;;;;;;5011473;28;20072;-84
2021/07/16 02:40:49;;;;;;;11.75;10.10;;;16.70;99.90;;;;;;5013560;28;20053;-85
2021/07/16 02:43:16;;;;;;;11.68;10.48;;;16.70;99.90;;;;;;5028181;28;20041;-84
2021/07/16 02:45:44;;;;;;;10.23;9.20;;;16.70;99.90;;;;;;5014652;28;20048;-84
2021/07/16 02:48:12;;;;;;;11.55;10.30;;;16.70;99.90;;;;;;5029809;28;20144;-85
2021/07/16 02:50:41;;;;;;;12.88;10.00;;;16.70;99.90;;;;;;5012329;28;20045;-85
2021/07/16 02:53:11;;;;;;;12.77;9.13;;;16.70;99.90;;;;;;5011554;28;20387;-85
2021/07/16 02:55:38;;;;;;;9.13;8.15;;;16.80;99.90;;;;;;5013736;28;20046;-84
2021/07/16 02:58:07;;;;;;;10.27;8.57;;;16.70;99.90;;;;;;5028952;28;20148;-84
2021/07/16 03:00:34;;;;;;;9.95;8.80;;;16.70;99.90;;;;;;5011073;28;20049;-84
2021/07/16 03:03:02;;;;;;;8.97;7.50;;;16.70;99.90;;;;;;5010532;28;20471;-84
2021/07/16 03:05:32;;;;;;;8.40;7.57;;;16.80;99.90;;;;;;5007990;28;20387;-84
2021/07/16 03:07:59;;;;;;;8.30;7.25;;;16.80;99.90;;;;;;5011476;28;20390;-84
2021/07/16 03:10:31;;;;;;;9.52;7.40;;;16.80;99.90;;;;;;5013912;28;20038;-84
2021/07/16 03:13:01;;;;;;;7.63;6.88;;;16.80;99.90;;;;;;5014925;28;20041;-85
2021/07/16 03:15:28;;;;;;;8.93;7.05;;;16.80;99.90;;;;;;5014450;28;20539;-85
2021/07/16 03:17:56;;;;;;;11.63;7.07;;;16.80;99.90;;;;;;5013027;28;20442;-84
2021/07/16 03:20:34;;;;;;;9.38;6.80;;;16.80;99.90;;;;;;5014160;28;20041;-84
2021/07/16 03:23:02;;;;;;;7.63;6.93;;;16.80;99.90;;;;;;5033131;28;20475;-85
2021/07/16 03:25:29;;;;;;;7.85;7.05;;;16.80;99.90;;;;;;5010665;28;20052;-84
2021/07/16 03:27:56;;;;;;;10.07;7.47;;;16.80;99.90;;;;;;5024663;28;20052;-85
2021/07/16 03:30:26;;;;;;;8.70;7.43;;;16.80;99.90;;;;;;4999570;28;20046;-84
2021/07/16 03:32:55;;;;;;;7.57;6.88;;;16.80;99.90;;;;;;5015563;28;20136;-84
2021/07/16 03:35:23;;;;;;;;;;;16.80;99.90;;;;;;5010634;28;20046;-84
2021/07/16 03:37:50;;;;;;;8.65;7.63;;;16.80;99.90;;;;;;5015022;28;19928;-84
2021/07/16 03:40:18;;;;;;;10.32;7.88;;;16.80;99.90;;;;;;5012083;28;20057;-84
2021/07/16 03:42:45;;;;;;;9.30;7.30;;;16.80;99.90;;;;;;5016432;28;20045;-84
2021/07/16 03:45:14;;;;;;;8.68;7.78;;;16.80;99.90;;;;;;5014893;28;20068;-85
2021/07/16 03:47:45;;;;;;;;;;;16.70;99.90;;;;;;5033287;28;20046;-84
2021/07/16 03:50:14;;;;;;;9.85;7.78;;;16.70;99.90;;;;;;5012838;28;19925;-84
2021/07/16 03:52:41;;;;;;;10.05;8.95;;;16.70;99.90;;;;;;5033418;28;20061;-84
2021/07/16 03:55:09;;;;;;;9.73;8.73;;;16.70;99.90;;;;;;5031451;28;20056;-84
2021/07/16 03:57:41;;;;;;;11.18;9.15;;;16.70;99.90;;;;;;5012546;28;20303;-84
2021/07/16 04:00:09;;;;;;;10.75;9.40;;;16.60;99.90;;;;;;5027776;28;20060;-84
2021/07/16 04:02:36;;;;;;;11.48;9.02;;;16.60;99.90;;;;;;5005928;28;20057;-85
2021/07/16 04:05:03;;;;;;;9.73;8.73;;;16.60;99.90;;;;;;5031643;28;20057;-84
2021/07/16 04:07:33;;;;;;;12.23;9.88;;;16.60;99.90;;;;;;5032147;28;20372;-84
2021/07/16 04:10:00;;;;;;;10.95;9.85;;;16.60;99.90;;;;;;5008719;28;20337;-85
2021/07/16 04:12:27;;;;;;;11.13;9.95;;;16.60;99.90;;;;;;5013017;28;20044;-84
2021/07/16 04:14:55;;;;;;;13.05;9.65;;;16.60;99.90;;;;;;5013765;28;20049;-84
2021/07/16 04:17:24;;;;;;;10.70;9.18;;;16.60;99.90;;;;;;5013150;28;20041;-85
2021/07/16 04:19:52;;;;;;;12.40;9.80;;;16.50;99.90;;;;;;5020054;28;20053;-84
2021/07/16 04:22:24;;;;;;;10.60;9.47;;;16.50;99.90;;;;;;5013803;28;20041;-84
2021/07/16 04:24:52;;;;;;;12.20;10.43;;;16.50;99.90;;;;;;5013851;28;20300;-85
2021/07/16 04:27:19;;;;;;;12.37;10.00;;;16.50;99.90;;;;;;5031600;28;20049;-84
2021/07/16 04:29:46;;;;;;;11.70;10.60;;;16.50;99.90;;;;;;5012368;28;20789;-84
2021/07/16 04:32:14;;;;;;;10.65;9.57;;;16.50;99.90;;;;;;5013112;28;20060;-84
2021/07/16 04:34:41;;;;;;;11.07;9.82;;;16.50;99.90;;;;;;5027076;28;20103;-84
2021/07/16 04:37:09;;;;;;;12.27;9.80;;;16.50;99.90;;;;;;5018805;28;20061;-85
2021/07/16 04:39:37;;;;;;;11.02;9.88;;;16.50;99.90;;;;;;4998339;28;20041;-84
2021/07/16 04:42:05;;;;;;;11.60;10.45;;;16.50;99.90;;;;;;5016445;28;20388;-84
2021/07/16 04:44:32;;;;;;;14.32;10.50;;;16.50;99.90;;;;;;5022639;28;20045;-84
2021/07/16 04:47:00;;;;;;;11.88;10.55;;;16.40;99.90;;;;;;5021357;28;20053;-84
2021/07/16 04:49:27;;;;;;;11.93;10.52;;;16.40;99.90;;;;;;5000403;28;20053;-84
2021/07/16 04:51:54;;;;;;;11.85;10.50;;;16.40;99.90;;;;;;5029464;28;20041;-84
2021/07/16 04:54:22;;;;;;;10.53;8.87;;;16.40;99.90;;;;;;5015283;28;20067;-84
2021/07/16 04:56:50;;;;;;;11.30;9.70;;;16.40;99.90;;;;;;5013909;28;20049;-84
2021/07/16 04:59:17;;;;;;;11.30;9.65;;;16.40;99.90;;;;;;5016819;28;20045;-84
2021/07/16 05:01:44;;;;;;;11.55;9.68;;;16.40;99.90;;;;;;5026970;28;20054;-84
2021/07/16 05:04:15;;;;;;;10.73;9.63;;;16.40;99.90;;;;;;5011366;28;20140;-84
2021/07/16 05:06:42;;;;;;;12.03;9.17;;;16.40;99.90;;;;;;4999257;28;20480;-85
2021/07/16 05:09:09;;;;;;;13.90;9.70;;;16.40;99.90;;;;;;5020372;28;20299;-85
2021/07/16 05:11:36;;;;;;;11.02;9.10;;;16.40;99.90;;;;;;5016654;28;20042;-84
2021/07/16 05:14:03;;;;;;;10.63;8.95;;;16.40;99.90;;;;;;5023226;28;20102;-84
2021/07/16 05:16:30;;;;;;;12.70;9.13;;;16.40;99.90;;;;;;5014879;28;20115;-86
2021/07/16 05:18:57;;;;;;;10.85;7.93;;;16.50;99.90;;;;;;5016030;28;20081;-84
2021/07/16 05:21:24;;;;;;;9.05;7.28;;;16.50;99.90;;;;;;5012211;28;20048;-84
2021/07/16 05:23:51;;;;;;;9.50;7.60;;;16.50;99.90;;;;;;5009171;28;20046;-84
2021/07/16 05:26:18;;;;;;;7.97;7.00;;;16.50;99.90;;;;;;5012288;28;20041;-84
2021/07/16 05:28:47;;;;;;;8.60;7.70;;;16.60;99.90;;;;;;5028468;28;20045;-84
2021/07/16 05:31:14;;;;;;;;;;;16.60;99.90;;;;;;5009873;28;20060;-84
2021/07/16 05:33:41;;;;;;;9.57;6.93;;;16.70;99.90;;;;;;5025180;28;20647;-83
2021/07/16 05:36:08;;;;;;;8.50;7.35;;;16.70;99.90;;;;;;5036414;28;20045;-84
2021/07/16 05:38:37;;;;;;;9.43;7.20;;;16.70;99.90;;;;;;5011744;28;20052;-84
2021/07/16 05:41:05;;;;;;;12.50;7.45;;;16.80;99.90;;;;;;5012481;28;20059;-84
2021/07/16 05:43:33;;;;;;;;;;;16.90;99.90;;;;;;5011289;28;20054;-84
2021/07/16 05:46:02;;;;;;;7.97;6.83;;;16.90;99.90;;;;;;5010712;28;19928;-84
2021/07/16 05:48:31;;;;;;;8.57;6.93;;;17.00;99.90;;;;;;5011144;28;20041;-84
2021/07/16 05:51:01;;;;;;;7.57;6.82;;;17.00;99.90;;;;;;5043674;28;20053;-84
2021/07/16 05:53:29;;;;;;;7.25;6.60;;;17.10;99.90;;;;;;5013641;28;20088;-84
2021/07/16 05:55:56;;;;;;;8.43;6.60;;;17.20;99.90;;;;;;5017449;28;20052;-84
2021/07/16 05:58:23;;;;;;;7.55;6.65;;;17.20;99.90;;;;;;5019190;28;20048;-84
2021/07/16 06:00:50;;;;;;;6.85;6.18;;;17.30;99.90;;;;;;5028261;28;20050;-84
2021/07/16 06:03:17;;;;;;;7.60;6.22;;;17.30;99.90;;;;;;5020172;28;20061;-85
2021/07/16 06:05:44;;;;;;;8.20;6.13;;;17.40;99.90;;;;;;5016913;28;20037;-84
2021/07/16 06:08:16;;;;;;;7.70;6.45;;;17.50;99.90;;;;;;5007994;28;20045;-84
2021/07/16 06:10:43;;;;;;;6.75;6.05;;;17.50;99.90;;;;;;5019477;28;20053;-84
2021/07/16 06:13:10;;;;;;;7.93;6.10;;;17.60;99.90;;;;;;5012631;28;20052;-85
2021/07/16 06:15:37;;;;;;;7.65;6.15;;;17.60;99.90;;;;;;5035040;28;20097;-84
2021/07/16 06:18:04;;;;;;;6.75;6.03;;;17.70;99.90;;;;;;5042620;28;20390;-84
2021/07/16 06:20:31;;;;;;;7.00;6.30;;;17.70;99.90;;;;;;5013386;28;20048;-84
2021/07/16 06:22:58;;;;;;;7.22;6.40;;;17.80;99.90;;;;;;5015228;28;20049;-84
2021/07/16 06:25:25;;;;;;;6.95;6.28;;;17.90;99.90;;;;;;5014492;28;20402;-84
2021/07/16 06:27:52;;;;;;;6.78;5.72;;;17.90;99.90;;;;;;5022154;28;20103;-84
2021/07/16 06:30:19;;;;;;;6.70;6.00;;;17.90;99.90;;;;;;5039829;28;20053;-84
2021/07/16 06:32:46;;;;;;;7.28;6.57;;;18.00;99.90;;;;;;5028066;28;20046;-84
2021/07/16 06:35:13;;;;;;;5.80;5.28;;;18.10;99.90;;;;;;5033692;28;20137;-84
2021/07/16 06:37:40;;;;;;;6.30;5.53;;;18.10;99.90;;;;;;5024447;28;20112;-85
2021/07/16 06:40:08;;;;;;;7.80;6.82;;;18.20;99.90;;;;;;5018861;28;20049;-84
2021/07/16 06:42:35;;;;;;;7.32;6.63;;;18.30;99.90;;;;;;5012271;28;20078;-84
2021/07/16 06:45:04;;;;;;;8.63;5.95;;;18.30;99.90;;;;;;5017075;28;20127;-84
2021/07/16 06:47:31;;;;;;;7.75;6.22;;;18.40;99.90;;;;;;5032660;28;20356;-84
2021/07/16 06:49:58;;;;;;;9.00;6.05;;;18.40;99.90;;;;;;5014195;28;20053;-84
2021/07/16 06:52:31;;;;;;;7.47;5.93;;;18.50;99.90;;;;;;5015680;28;20125;-84
2021/07/16 06:54:58;;;;;;;7.57;6.47;;;18.60;99.90;;;;;;5035282;28;20095;-84
2021/07/16 06:57:25;;;;;;;6.80;5.97;;;18.60;99.90;;;;;;5032073;28;20464;-85
2021/07/16 06:59:52;;;;;;;6.93;5.97;;;18.70;99.90;;;;;;5017764;28;20399;-85
2021/07/16 07:02:18;;;;;;;7.72;6.78;;;18.80;99.90;;;;;;5015410;28;20471;-84
2021/07/16 07:04:46;;;;;;;8.63;6.65;;;18.90;99.90;;;;;;5016682;28;20132;-84
2021/07/16 07:07:12;;;;;;;7.90;7.00;;;19.00;99.90;;;;;;5010028;28;20364;-84
2021/07/16 07:09:39;;;;;;;6.97;5.82;;;19.10;99.90;;;;;;5008327;28;20052;-84
2021/07/16 07:12:07;;;;;;;7.65;6.35;;;19.10;99.90;;;;;;5031478;28;20395;-85
2021/07/16 07:14:34;;;;;;;7.28;6.22;;;19.20;99.90;;;;;;5016510;28;20049;-84
2021/07/16 07:17:01;;;;;;;8.70;6.03;;;19.30;99.90;;;;;;5009708;28;20042;-84
2021/07/16 07:19:29;;;;;;;6.53;5.93;;;19.40;99.90;;;;;;5027162;28;20046;-84
2021/07/16 07:21:56;;;;;;;8.13;6.70;;;19.50;99.90;;;;;;5016012;28;20053;-85
2021/07/16 07:24:23;;;;;;;6.80;5.78;;;19.60;99.90;;;;;;5015714;28;20045;-85
2021/07/16 07:26:54;;;;;;;6.85;6.20;;;19.70;99.90;;;;;;5033129;28;20078;-84
2021/07/16 07:29:21;;;;;;;7.90;5.82;;;19.80;99.90;;;;;;5011898;28;20487;-84
2021/07/16 07:31:48;;;;;;;7.80;5.43;;;20.00;99.90;;;;;;5008142;28;20050;-84
2021/07/16 07:34:16;;;;;;;6.22;4.80;;;20.10;99.90;;;;;;5007853;28;20060;-84
2021/07/16 07:36:45;;;;;;;5.20;4.45;;;20.30;99.90;;;;;;5014799;28;20064;-84
2021/07/16 07:39:12;;;;;;;6.90;5.60;;;20.40;99.90;;;;;;5015738;28;20056;-84
2021/07/16 07:41:41;;;;;;;5.35;4.85;;;20.60;99.90;;;;;;5033604;28;20379;-85
2021/07/16 07:44:08;;;;;;;6.00;4.80;;;20.70;99.90;;;;;;5018421;28;20403;-85
2021/07/16 07:46:35;;;;;;;6.50;4.57;;;20.90;99.90;;;;;;5017650;28;20044;-85
2021/07/16 07:49:03;;;;;;;4.80;4.40;;;21.00;99.90;;;;;;5024278;28;20037;-85
2021/07/16 07:51:32;;;;;;;5.72;4.60;;;21.20;99.90;;;;;;5024260;28;20049;-85
2021/07/16 07:53:59;;;;;;;;;;;21.30;99.90;;;;;;5016223;28;20045;-85
2021/07/16 07:56:30;;;;;;;8.43;4.82;;;21.40;99.90;;;;;;5014438;28;20004;-85
2021/07/16 07:58:58;;;;;;;6.93;4.95;;;21.40;99.90;;;;;;5019373;28;20058;-85
2021/07/16 08:01:30;;;;;;;7.10;5.18;;;21.60;99.90;;;;;;5007979;28;20515;-85
2021/07/16 08:03:59;;;;;;;8.32;5.03;;;21.70;99.90;;;;;;5000943;28;20095;-85
2021/07/16 08:06:27;;;;;;;6.25;5.60;;;21.80;99.90;;;;;;5020077;28;20056;-85
2021/07/16 08:08:54;;;;;;;8.32;5.38;;;21.90;99.90;;;;;;5011138;28;20038;-85
2021/07/16 08:11:21;;;;;;;7.22;5.22;;;21.90;99.90;;;;;;5015229;28;20069;-85
2021/07/16 08:13:48;;;;;;;6.90;5.72;;;21.90;99.90;;;;;;5009839;28;20049;-84
2021/07/16 08:16:15;;;;;;;7.15;5.38;;;21.90;99.90;;;;;;5012452;28;20120;-85
2021/07/16 08:18:43;;;;;;;8.52;5.30;;;21.90;99.90;;;;;;5015443;28;20083;-85
2021/07/16 08:21:10;;;;;;;8.80;5.40;;;22.00;99.90;;;;;;5013802;28;20056;-85
2021/07/16 08:23:37;;;;;;;9.13;4.72;;;22.10;99.90;;;;;;5014060;28;20045;-85
2021/07/16 08:26:03;;;;;;;7.53;5.22;;;22.30;99.90;;;;;;5009480;28;20042;-85
2021/07/16 08:28:32;;;;;;;6.28;5.65;;;22.50;99.90;;;;;;5010160;28;20069;-85
2021/07/16 08:30:59;;;;;;;6.63;5.03;;;22.40;99.90;;;;;;5009911;28;20501;-85
2021/07/16 08:33:26;;;;;;;7.07;4.80;;;22.60;99.90;;;;;;5012980;28;20052;-85
2021/07/16 08:35:53;;;;;;;6.50;4.38;;;22.70;99.90;;;;;;5006446;28;20080;-85
2021/07/16 08:38:20;;;;;;;4.82;4.25;;;22.80;99.90;;;;;;5013748;28;20045;-85
2021/07/16 08:40:49;;;;;;;4.70;4.20;;;23.00;99.90;;;;;;5014324;28;20053;-85
2021/07/16 08:43:19;;;;;;;8.20;4.00;;;23.20;99.90;;;;;;5030154;28;20051;-85
2021/07/16 08:45:46;;;;;;;5.05;4.15;;;23.30;99.90;;;;;;5005064;28;20479;-85
2021/07/16 08:48:14;;;;;;;4.65;4.22;;;23.50;99.90;;;;;;5029338;28;20037;-85
2021/07/16 08:50:41;;;;;;;8.10;5.63;;;23.60;99.90;;;;;;5009862;28;20048;-85
2021/07/16 08:53:09;;;;;;;6.57;4.80;;;23.50;99.90;;;;;;5002959;28;20057;-85
2021/07/16 08:55:37;;;;;;;4.18;3.78;;;23.50;99.90;;;;;;5009027;28;20053;-85
2021/07/16 08:58:05;;;;;;;3.05;2.85;;;23.50;99.90;;;;;;5012795;28;20052;-84
2021/07/16 09:00:33;;;;;;;4.97;3.20;;;23.70;99.90;;;;;;5024194;28;20064;-84
2021/07/16 09:03:00;;;;;;;3.35;2.72;;;23.60;99.90;;;;;;5009129;28;20077;-84
2021/07/16 09:05:40;;;;;;;3.53;2.90;;;23.60;99.90;;;;;;5025779;28;20132;-85
2021/07/16 09:08:26;;;;;;;3.53;2.75;;;23.60;99.90;;;;;;5005991;28;20177;-85
2021/07/16 09:10:58;;;;;;;3.60;2.50;;;23.60;99.90;;;;;;5009022;28;20045;-85
2021/07/16 09:13:26;;;;;;;5.32;3.30;;;23.70;99.90;;;;;;5022501;28;20057;-84
2021/07/16 09:16:02;;;;;;;3.05;2.83;;;23.90;99.90;;;;;;5008675;28;20045;-85
2021/07/16 09:18:32;;;;;;;3.35;2.30;;;24.00;99.90;;;;;;5022326;28;20045;-85
2021/07/16 09:21:02;;;;;;;6.50;2.80;;;24.00;99.90;;;;;;5028107;28;20056;-85
2021/07/16 09:23:41;;;;;;;4.68;2.80;;;24.10;99.90;;;;;;5011492;28;20045;-85
2021/07/16 09:26:11;;;;;;;3.70;2.60;;;24.00;99.90;;;;;;5006468;28;20396;-85
2021/07/16 09:28:46;;;;;;;5.78;2.92;;;24.00;99.90;;;;;;5021263;28;20045;-85
2021/07/16 09:31:24;;;;;;;4.70;2.40;;;24.00;99.90;;;;;;5039306;28;20403;-86
2021/07/16 09:33:57;;;;;;;3.60;2.40;;;24.10;99.90;;;;;;4998662;28;20053;-84
2021/07/16 09:36:28;;;;;;;3.13;2.58;;;24.20;99.90;;;;;;5009909;28;20116;-85
2021/07/16 09:39:03;;;;;;;5.28;2.83;;;24.20;99.90;;;;;;5025830;28;20107;-85
2021/07/16 09:41:31;;;;;;;4.03;2.50;;;24.20;99.90;;;;;;5001505;28;20045;-84
2021/07/16 09:44:02;;;;;;;3.65;2.30;;;24.20;99.90;;;;;;5006326;28;20064;-84
2021/07/16 09:46:30;;;;;;;3.33;2.22;;;24.00;99.90;;;;;;5006722;28;20400;-85
2021/07/16 09:49:13;;;;;;;5.30;2.33;;;23.80;99.90;;;;;;5013848;28;20049;-85
2021/07/16 09:51:42;;;;;;;2.33;1.85;;;23.70;99.90;;;;;;5005449;28;20042;-84
2021/07/16 09:54:13;;;;;;;3.65;1.80;;;23.70;99.90;;;;;;5019523;28;20042;-85
2021/07/16 09:56:40;;;;;;;4.10;2.00;;;23.70;99.90;;;;;;5007778;28;20247;-85
2021/07/16 09:59:08;;;;;;;3.22;1.92;;;23.80;99.90;;;;;;5023012;28;20041;-84
2021/07/16 10:01:38;;;;;;;3.50;1.95;;;23.90;99.90;;;;;;5004085;28;20132;-84
2021/07/16 10:04:17;;;;;;;5.50;2.00;;;24.10;99.90;;;;;;4999189;28;20368;-85
2021/07/16 10:06:53;;;;;;;4.60;2.33;;;24.20;99.90;;;;;;5008833;28;20256;-85
2021/07/16 10:09:23;;;;;;;3.35;2.13;;;24.20;99.90;;;;;;5007854;28;20052;-85
2021/07/16 10:11:52;;;;;;;5.57;2.30;;;24.30;99.90;;;;;;5020321;28;20534;-85
2021/07/16 10:14:19;;;;;;;3.83;2.22;;;24.30;99.90;;;;;;5028402;28;20038;-85
2021/07/16 10:16:49;;;;;;;3.88;2.15;;;24.40;99.90;;;;;;5012515;28;20483;-85
2021/07/16 10:19:17;;;;;;;5.05;2.35;;;24.40;99.90;;;;;;4998755;28;20384;-85
2021/07/16 10:21:45;;;;;;;5.97;2.40;;;24.40;99.90;;;;;;5029829;28;20046;-85
2021/07/16 10:24:17;;;;;;;3.75;2.50;;;24.40;99.90;;;;;;5019814;28;20280;-85
2021/07/16 10:26:44;;;;;;;4.75;2.50;;;24.40;99.90;;;;;;5029368;28;20110;-85
2021/07/16 10:29:34;;;;;;;3.55;2.38;;;24.50;99.90;;;;;;5016308;28;20078;-84
2021/07/16 10:32:01;;;;;;;2.97;2.47;;;24.60;99.90;;;;;;5021442;28;20136;-84
2021/07/16 10:34:29;;;;;;;5.13;2.47;;;24.60;99.90;;;;;;5017875;28;20894;-84
2021/07/16 10:37:02;;;;;;;7.25;2.70;;;24.70;99.90;;;;;;5017357;28;21009;-85
2021/07/16 10:39:40;;;;;;;4.75;3.13;;;24.80;99.90;;;;;;5013483;28;20128;-85
2021/07/16 10:42:44;;;;;;;3.38;2.30;;;24.90;99.90;;;;;;5014112;28;20049;-85
2021/07/16 10:45:13;;;;;;;3.80;2.95;;;24.90;99.90;;;;;;4955805;28;20126;-84
2021/07/16 10:47:49;;;;;;;4.72;2.42;;;25.00;99.90;;;;;;4954407;28;20058;-84
2021/07/16 10:50:28;;;;;;;3.67;2.50;;;25.00;99.90;;;;;;4967265;28;20134;-84
2021/07/16 10:52:55;;;;;;;4.75;2.40;;;25.00;99.90;;;;;;4953048;28;20054;-84
2021/07/16 10:55:36;;;;;;;4.00;2.22;;;25.00;99.90;;;;;;4968342;28;20054;-84
2021/07/16 10:58:42;;;;;;;4.32;2.58;;;25.10;99.90;;;;;;4966206;28;20046;-84
2021/07/16 11:01:09;;;;;;;5.13;2.80;;;25.10;99.90;;;;;;4967845;28;20053;-84
2021/07/16 11:03:45;;;;;;;2.90;2.40;;;25.20;99.90;;;;;;4967659;28;20055;-84
2021/07/16 11:06:14;;;;;;;3.53;2.22;;;25.20;99.90;;;;;;4953625;28;20047;-84
2021/07/16 11:08:41;;;;;;;2.97;2.33;;;25.30;99.90;;;;;;4969622;28;20043;-84
2021/07/16 11:11:17;;;;;;;4.93;2.33;;;25.20;99.90;;;;;;4954307;28;20496;-85
2021/07/16 11:13:54;;;;;;;3.70;3.25;;;25.00;99.90;;;;;;4968235;28;20047;-85
2021/07/16 11:16:25;;;;;;;3.72;2.80;;;24.80;99.90;;;;;;4968833;28;20097;-85
2021/07/16 11:19:03;;;;;;;5.20;3.08;;;24.50;99.90;;;;;;4985770;28;20051;-85
2021/07/16 11:21:42;;;;;;;3.65;2.40;;;24.40;99.90;;;;;;5029007;28;20110;-85
2021/07/16 11:24:34;;;;;;;4.45;2.47;;;24.40;99.90;;;;;;5011264;28;20475;-85
2021/07/16 11:27:15;;;;;;;2.95;2.33;;;24.40;99.90;;;;;;5015215;28;20052;-85
2021/07/16 11:29:47;;;;;;;4.57;2.33;;;24.50;99.90;;;;;;5024955;28;20045;-85
2021/07/16 11:32:24;;;;;;;3.30;2.28;;;24.60;99.90;;;;;;5027561;28;20045;-84
2021/07/16 11:35:12;;;;;;;3.38;2.45;;;24.80;99.90;;;;;;5007548;28;20480;-85
2021/07/16 11:37:45;;;;;;;3.58;2.20;;;24.90;99.90;;;;;;5010102;28;20046;-85
2021/07/16 11:40:27;;;;;;;3.20;2.42;;;24.90;99.90;;;;;;5008694;28;20062;-85
2021/07/16 11:42:57;;;;;;;3.17;2.10;;;24.90;99.90;;;;;;5007346;28;20045;-85
2021/07/16 11:45:27;;;;;;;2.80;2.00;;;24.80;99.90;;;;;;5008048;28;20060;-85
2021/07/16 11:47:55;;;;;;;3.08;2.00;;;24.90;99.90;;;;;;5012842;28;20049;-85
2021/07/16 11:50:23;;;;;;;3.88;2.05;;;25.00;99.90;;;;;;5009943;28;20111;-85
2021/07/16 11:52:52;;;;;;;4.32;2.10;;;25.20;99.90;;;;;;5014065;28;20052;-85
2021/07/16 11:55:22;;;;;;;3.20;1.88;;;25.30;99.90;;;;;;5031825;28;20045;-84
2021/07/16 11:58:03;;;;;;;3.30;1.73;;;25.20;99.90;;;;;;5011863;28;20053;-84
2021/07/16 12:00:33;;;;;;;3.97;2.15;;;25.20;99.90;;;;;;5013842;28;20060;-84
2021/07/16 12:03:20;;;;;;;3.72;2.00;;;25.30;99.90;;;;;;5019896;28;20057;-84
2021/07/16 12:05:51;;;;;;;3.38;2.00;;;25.20;99.90;;;;;;5013910;28;20081;-84
2021/07/16 12:08:20;;;;;;;4.43;2.17;;;25.20;99.90;;;;;;5015643;28;20048;-85
2021/07/16 12:10:48;;;;;;;3.75;2.13;;;25.40;99.90;;;;;;5010972;28;20053;-84
2021/07/16 12:13:17;;;;;;;3.90;2.10;;;25.50;99.90;;;;;;5007982;28;20376;-85
2021/07/16 12:15:45;;;;;;;3.63;1.98;;;25.60;99.90;;;;;;5014368;28;20041;-84
2021/07/16 12:18:12;;;;;;;4.35;2.30;;;25.80;99.90;;;;;;5043188;28;20045;-84
2021/07/16 12:20:39;;;;;;;2.95;2.10;;;25.70;99.90;;;;;;5012567;28;20049;-84
2021/07/16 12:23:08;;;;;;;4.60;2.40;;;25.70;99.90;;;;;;5013812;28;20054;-84
2021/07/16 12:25:37;;;;;;;5.53;2.10;;;25.90;99.90;;;;;;5013946;28;20534;-84
2021/07/16 12:28:15;;;;;;;;;;;25.80;99.90;;;;;;5012185;28;20041;-84
2021/07/16 12:30:42;;;;;;;3.00;2.00;;;25.80;99.90;;;;;;5021562;28;19921;-84
2021/07/16 12:33:09;;;;;;;2.70;1.88;;;25.90;99.90;;;;;;5006922;28;20050;-84
2021/07/16 12:35:39;;;;;;;4.32;1.80;;;25.90;99.90;;;;;;5016832;28;20053;-84
2021/07/16 12:38:15;;;;;;;5.20;2.10;;;25.90;99.90;;;;;;5032636;28;20079;-84
2021/07/16 12:40:45;;;;;;;4.03;2.10;;;26.00;99.90;;;;;;5029528;28;20479;-84
2021/07/16 12:43:19;;;;;;;3.00;1.75;;;26.00;99.90;;;;;;5014098;28;20045;-84
2021/07/16 12:45:52;;;;;;;2.67;1.88;;;26.00;99.80;;;;;;5012522;28;20104;-84
2021/07/16 12:48:35;;;;;;;4.53;1.90;;;26.00;99.70;;;;;;5023124;28;20486;-84
2021/07/16 12:51:09;;;;;;;4.20;2.40;;;25.90;99.50;;;;;;5024551;28;20092;-84
2021/07/16 12:53:39;;;;;;;3.90;1.98;;;25.90;99.60;;;;;;5030776;28;20045;-84
2021/07/16 12:56:23;;;;;;;6.25;2.10;;;25.90;99.90;;;;;;5012712;28;20052;-84